createdAt,value
2022-09-28T00:01:22.113Z,99.91
2022-09-28T00:04:08.398Z,96.72
2022-09-28T00:06:54.159Z,96.42
2022-09-28T00:09:40.556Z,96.56
2022-09-28T00:12:26.364Z,96.31
2022-09-28T00:15:12.630Z,95.49
2022-09-28T00:17:58.561Z,95.33
2022-09-28T00:20:44.800Z,96.20
2022-09-28T00:23:30.643Z,95.44
2022-09-28T00:26:17.130Z,100.00
2022-09-28T00:29:03.065Z,100.00
2022-09-28T00:31:52.295Z,100.00
2022-09-28T00:34:40.673Z,100.00
2022-09-28T00:37:27.032Z,100.00
2022-09-28T00:40:12.929Z,100.00
2022-09-28T00:42:58.919Z,99.05
2022-09-28T00:45:44.892Z,100.00
2022-09-28T00:48:32.637Z,100.00
2022-09-28T00:51:19.264Z,100.00
2022-09-28T00:54:05.332Z,100.00
2022-09-28T00:56:50.847Z,100.00
2022-09-28T00:59:37.305Z,99.62
2022-09-28T01:02:23.087Z,98.59
2022-09-28T01:05:10.350Z,96.73
2022-09-28T01:07:56.547Z,96.57
2022-09-28T01:10:45.875Z,94.31
2022-09-28T01:13:31.689Z,94.26
2022-09-28T01:16:18.101Z,95.66
2022-09-28T01:19:44.280Z,92.30
2022-09-28T01:22:49.158Z,97.93
2022-09-28T01:25:53.953Z,99.37
2022-09-28T01:28:40.377Z,97.63
2022-09-28T01:31:27.219Z,96.77
2022-09-28T01:34:34.197Z,96.03
2022-09-28T01:37:20.366Z,94.63
2022-09-28T01:40:06.612Z,93.63
2022-09-28T01:43:12.769Z,94.70
2022-09-28T01:46:00.648Z,93.67
2022-09-28T01:49:09.835Z,95.70
2022-09-28T01:52:02.041Z,95.37
2022-09-28T01:54:48.026Z,97.94
2022-09-28T01:57:44.816Z,95.71
2022-09-28T02:00:30.745Z,97.68
2022-09-28T02:03:18.543Z,95.82
2022-09-28T02:06:06.574Z,96.58
2022-09-28T02:08:57.419Z,96.86
2022-09-28T02:11:45.685Z,95.97
2022-09-28T02:14:32.015Z,94.30
2022-09-28T02:17:19.345Z,93.64
2022-09-28T02:20:06.011Z,100.00
2022-09-28T02:22:52.454Z,100.00
2022-09-28T02:25:41.055Z,97.75
2022-09-28T02:28:27.298Z,99.61
2022-09-28T02:31:13.804Z,98.91
2022-09-28T02:33:59.512Z,96.25
2022-09-28T02:36:46.467Z,96.13
2022-09-28T02:39:32.230Z,97.86
2022-09-28T02:42:28.816Z,95.06
2022-09-28T02:45:21.699Z,94.33
2022-09-28T02:48:42.723Z,94.00
2022-09-28T02:51:32.917Z,88.04
2022-09-28T02:54:31.411Z,86.35
2022-09-28T02:57:17.530Z,86.56
2022-09-28T03:00:10.373Z,84.77
2022-09-28T03:02:59.341Z,86.77
2022-09-28T03:06:00.424Z,91.95
2022-09-28T03:08:54.894Z,88.26
2022-09-28T03:11:43.895Z,87.96
2022-09-28T03:14:30.037Z,90.17
2022-09-28T03:17:16.312Z,90.09
2022-09-28T03:20:02.604Z,91.36
2022-09-28T03:23:12.312Z,91.96
2022-09-28T03:25:55.039Z,93.62
2022-09-28T03:28:41.600Z,94.54
2022-09-28T03:31:28.093Z,95.07
2022-09-28T03:34:14.438Z,95.21
2022-09-28T03:37:01.313Z,93.66
2022-09-28T03:39:47.936Z,93.21
2022-09-28T03:42:35.569Z,93.68
2022-09-28T03:45:21.574Z,91.47
2022-09-28T03:48:08.099Z,88.58
2022-09-28T03:50:58.020Z,89.75
2022-09-28T03:53:44.176Z,89.04
2022-09-28T03:56:30.610Z,87.24
2022-09-28T03:59:16.661Z,91.11
2022-09-28T04:02:04.572Z,90.39
2022-09-28T04:04:50.820Z,91.96
2022-09-28T04:07:36.910Z,91.27
2022-09-28T04:10:23.236Z,92.61
2022-09-28T04:13:08.894Z,94.58
2022-09-28T04:15:56.102Z,93.02
2022-09-28T04:18:42.549Z,92.57
2022-09-28T04:21:29.448Z,91.88
2022-09-28T04:24:16.191Z,91.37
2022-09-28T04:27:21.375Z,91.15
2022-09-28T04:30:08.205Z,91.22
2022-09-28T04:32:54.852Z,91.40
2022-09-28T04:35:40.592Z,93.52
2022-09-28T04:38:48.463Z,90.54
2022-09-28T04:41:33.060Z,89.40
2022-09-28T04:44:19.794Z,89.89
2022-09-28T04:47:05.571Z,98.62
2022-09-28T04:49:53.122Z,97.85
2022-09-28T04:52:39.061Z,97.78
2022-09-28T04:55:25.858Z,96.05
2022-09-28T04:58:12.965Z,91.68
2022-09-28T05:01:00.398Z,89.92
2022-09-28T05:03:47.544Z,90.42
2022-09-28T05:06:33.846Z,91.44
2022-09-28T05:09:20.332Z,92.75
2022-09-28T05:12:06.557Z,93.62
2022-09-28T05:14:52.564Z,94.36
2022-09-28T05:17:38.953Z,94.78
2022-09-28T05:20:25.000Z,96.06
2022-09-28T05:23:12.375Z,96.44
2022-09-28T05:26:00.585Z,92.61
2022-09-28T05:28:47.184Z,91.83
2022-09-28T05:31:33.521Z,93.12
2022-09-28T05:34:21.464Z,92.22
2022-09-28T05:37:07.143Z,93.21
2022-09-28T05:39:52.958Z,92.27
2022-09-28T05:42:38.643Z,91.62
2022-09-28T05:45:24.782Z,92.66
2022-09-28T05:48:10.969Z,93.77
2022-09-28T05:50:58.709Z,92.85
2022-09-28T05:53:45.543Z,96.26
2022-09-28T05:56:32.055Z,99.92
2022-09-28T05:59:18.310Z,99.38
2022-09-28T06:02:04.986Z,100.00
2022-09-28T06:04:51.373Z,97.21
2022-09-28T06:07:37.615Z,95.42
2022-09-28T06:10:24.206Z,94.92
2022-09-28T06:13:10.510Z,94.30
2022-09-28T06:15:57.735Z,93.93
2022-09-28T06:18:45.136Z,95.81
2022-09-28T06:21:32.128Z,95.60
2022-09-28T06:24:17.985Z,93.48
2022-09-28T06:27:04.193Z,94.62
2022-09-28T06:29:50.115Z,96.90
2022-09-28T06:32:36.501Z,97.10
2022-09-28T06:35:22.900Z,93.13
2022-09-28T06:38:10.623Z,94.55
2022-09-28T06:40:59.771Z,92.58
2022-09-28T06:43:46.468Z,93.96
2022-09-28T06:46:35.690Z,96.22
2022-09-28T06:49:27.834Z,94.89
2022-09-28T06:52:14.445Z,93.63
2022-09-28T06:55:02.032Z,91.77
2022-09-28T06:57:48.111Z,91.05
2022-09-28T07:00:35.641Z,89.18
2022-09-28T07:03:22.138Z,88.63
2022-09-28T07:06:09.545Z,86.65
2022-09-28T07:09:11.489Z,85.12
2022-09-28T07:12:04.944Z,85.97
2022-09-28T07:14:56.245Z,83.36
2022-09-28T07:17:55.050Z,82.81
2022-09-28T07:20:53.652Z,84.12
2022-09-28T07:23:51.696Z,83.02
2022-09-28T07:26:41.359Z,82.63
2022-09-28T07:29:28.347Z,78.75
2022-09-28T07:32:14.124Z,79.96
2022-09-28T07:35:01.652Z,76.81
2022-09-28T07:37:47.506Z,76.35
2022-09-28T07:40:53.165Z,75.88
2022-09-28T07:43:40.181Z,75.86
2022-09-28T07:46:26.541Z,75.44
2022-09-28T07:49:15.647Z,77.10
2022-09-28T07:52:04.379Z,81.54
2022-09-28T07:54:52.200Z,85.60
2022-09-28T07:57:40.044Z,87.34
2022-09-28T08:00:34.156Z,85.27
2022-09-28T08:03:22.461Z,85.94
2022-09-28T08:06:11.192Z,85.88
2022-09-28T08:08:59.956Z,84.04
2022-09-28T08:11:46.585Z,84.98
2022-09-28T08:14:34.400Z,85.51
2022-09-28T08:17:20.661Z,84.63
2022-09-28T08:20:25.774Z,86.06
2022-09-28T08:23:11.979Z,88.43
2022-09-28T08:25:59.280Z,85.39
2022-09-28T08:28:46.761Z,82.88
2022-09-28T08:31:36.979Z,84.85
2022-09-28T08:34:23.851Z,83.51
2022-09-28T08:37:12.596Z,82.62
2022-09-28T08:40:00.221Z,85.56
2022-09-28T08:42:46.501Z,84.83
2022-09-28T08:45:36.381Z,84.00
2022-09-28T08:48:52.221Z,86.46
2022-09-28T08:51:52.485Z,80.49
2022-09-28T08:54:45.044Z,77.53
2022-09-28T08:57:36.180Z,79.24
2022-09-28T09:00:42.708Z,78.82
2022-09-28T09:03:35.875Z,78.97
2022-09-28T09:06:34.441Z,78.51
2022-09-28T09:09:30.733Z,79.87
2022-09-28T09:12:33.062Z,79.10
2022-09-28T09:15:18.797Z,76.01
2022-09-28T09:18:23.116Z,74.01
2022-09-28T09:21:13.621Z,76.25
2022-09-28T09:24:27.442Z,73.93
2022-09-28T09:27:22.771Z,75.32
2022-09-28T09:30:10.858Z,73.46
2022-09-28T09:32:56.931Z,75.96
2022-09-28T09:35:43.912Z,67.70
2022-09-28T09:38:50.650Z,69.60
2022-09-28T09:41:42.008Z,75.45
2022-09-28T09:44:46.177Z,74.03
2022-09-28T09:47:36.018Z,75.42
2022-09-28T09:50:30.799Z,75.29
2022-09-28T09:53:20.925Z,76.41
2022-09-28T09:56:09.928Z,77.75
2022-09-28T09:58:57.464Z,73.77
2022-09-28T10:01:44.183Z,71.72
2022-09-28T10:04:32.388Z,74.98
2022-09-28T10:07:26.318Z,71.25
2022-09-28T10:10:14.303Z,76.24
2022-09-28T10:13:00.761Z,78.11
2022-09-28T10:15:49.066Z,76.29
2022-09-28T10:18:36.934Z,73.28
2022-09-28T10:21:26.483Z,74.23
2022-09-28T10:24:33.195Z,71.05
2022-09-28T10:27:24.186Z,76.49
2022-09-28T10:30:09.904Z,69.30
2022-09-28T10:32:59.485Z,69.50
2022-09-28T10:35:47.864Z,71.25
2022-09-28T10:38:34.356Z,73.58
2022-09-28T10:41:22.730Z,72.17
2022-09-28T10:44:12.952Z,72.47
2022-09-28T10:47:02.502Z,69.96
2022-09-28T10:49:49.766Z,68.63
2022-09-28T10:52:36.803Z,68.75
2022-09-28T10:55:32.189Z,72.24
2022-09-28T10:58:24.217Z,73.62
2022-09-28T11:01:17.562Z,73.21
2022-09-28T11:04:04.922Z,71.54
2022-09-28T11:06:51.440Z,72.62
2022-09-28T11:09:39.342Z,70.22
2022-09-28T11:12:27.315Z,69.25
2022-09-28T11:15:17.523Z,64.17
2022-09-28T11:18:22.662Z,66.64
2022-09-28T11:21:12.125Z,64.06
2022-09-28T11:24:01.436Z,63.87
2022-09-28T11:26:48.417Z,63.92
2022-09-28T11:29:35.976Z,66.19
2022-09-28T11:32:24.709Z,68.31
2022-09-28T11:35:39.097Z,66.89
2022-09-28T11:38:33.632Z,62.69
2022-09-28T11:41:28.442Z,64.07
2022-09-28T11:44:23.902Z,64.17
2022-09-28T11:47:24.923Z,60.26
2022-09-28T11:50:22.998Z,62.02
2022-09-28T11:53:10.597Z,63.64
2022-09-28T11:56:15.578Z,67.17
2022-09-28T11:59:20.430Z,63.46
2022-09-28T12:02:16.793Z,65.90
2022-09-28T12:05:06.280Z,60.84
2022-09-28T12:07:56.450Z,62.65
2022-09-28T12:11:01.803Z,58.78
2022-09-28T12:13:51.501Z,58.88
2022-09-28T12:20:10.873Z,60.45
2022-09-28T12:22:59.955Z,62.89
2022-09-28T12:25:47.257Z,60.26
2022-09-28T12:28:33.355Z,63.55
2022-09-28T12:31:39.537Z,63.04
2022-09-28T12:34:26.037Z,66.69
2022-09-28T12:37:23.514Z,64.28
2022-09-28T12:40:09.745Z,61.94
2022-09-28T12:43:14.623Z,62.03
2022-09-28T12:46:11.886Z,61.07
2022-09-28T12:49:47.320Z,59.55
2022-09-28T12:52:09.017Z,58.07
2022-09-28T12:54:59.016Z,57.43
2022-09-28T12:57:57.652Z,57.83
2022-09-28T13:00:46.898Z,57.08
2022-09-28T13:03:36.760Z,60.25
2022-09-28T13:06:28.772Z,55.22
2022-09-28T13:09:16.745Z,58.76
2022-09-28T13:12:05.804Z,57.73
2022-09-28T13:15:11.202Z,59.26
2022-09-28T13:18:16.233Z,58.95
2022-09-28T13:21:08.317Z,63.70
2022-09-28T13:24:00.766Z,62.39
2022-09-28T13:26:50.645Z,63.21
2022-09-28T13:29:36.849Z,65.74
2022-09-28T13:32:24.295Z,68.02
2022-09-28T13:35:19.554Z,64.62
2022-09-28T13:38:18.142Z,65.87
2022-09-28T13:41:04.144Z,67.13
2022-09-28T13:43:50.451Z,64.67
2022-09-28T13:46:56.268Z,63.40
2022-09-28T13:49:42.252Z,61.56
2022-09-28T13:52:37.377Z,62.09
2022-09-28T13:55:29.893Z,61.60
2022-09-28T13:58:24.719Z,61.16
2022-09-28T14:01:11.726Z,60.63
2022-09-28T14:04:19.073Z,57.32
2022-09-28T14:07:16.850Z,58.17
2022-09-28T14:10:18.699Z,58.85
2022-09-28T14:13:06.659Z,58.70
2022-09-28T14:15:55.334Z,59.10
2022-09-28T14:18:41.304Z,60.00
2022-09-28T14:21:46.222Z,63.12
2022-09-28T14:24:51.186Z,61.61
2022-09-28T14:27:38.029Z,61.08
2022-09-28T14:30:42.633Z,62.84
2022-09-28T14:33:29.834Z,62.12
2022-09-28T14:36:57.481Z,62.26
2022-09-28T14:40:05.740Z,61.15
2022-09-28T14:43:20.687Z,63.76
2022-09-28T14:46:14.581Z,60.41
2022-09-28T14:49:04.341Z,63.13
2022-09-28T14:51:54.187Z,63.56
2022-09-28T14:54:50.000Z,64.61
2022-09-28T14:57:36.417Z,64.09
2022-09-28T15:00:23.080Z,67.81
2022-09-28T15:03:12.247Z,64.81
2022-09-28T15:05:59.430Z,66.77
2022-09-28T15:08:45.760Z,66.60
2022-09-28T15:11:31.470Z,65.72
2022-09-28T15:14:17.973Z,65.52
2022-09-28T15:17:10.807Z,68.06
2022-09-28T15:20:26.586Z,67.08
2022-09-28T15:23:28.213Z,67.24
2022-09-28T15:26:27.604Z,69.86
2022-09-28T15:29:20.277Z,68.02
2022-09-28T15:32:06.367Z,68.20
2022-09-28T15:34:52.750Z,69.48
2022-09-28T15:37:40.717Z,69.82
2022-09-28T15:40:29.571Z,67.88
2022-09-28T15:43:24.785Z,67.08
2022-09-28T15:46:13.550Z,68.48
2022-09-28T15:49:01.559Z,68.87
2022-09-28T15:51:48.739Z,65.76
2022-09-28T15:54:38.888Z,67.46
2022-09-28T15:57:36.850Z,67.45
2022-09-28T16:00:23.416Z,68.14
2022-09-28T16:03:09.551Z,68.11
2022-09-28T16:05:58.312Z,69.13
2022-09-28T16:08:49.001Z,69.02
2022-09-28T16:11:38.713Z,68.30
2022-09-28T16:14:24.691Z,69.55
2022-09-28T16:17:14.161Z,69.22
2022-09-28T16:20:19.000Z,69.65
2022-09-28T16:23:17.051Z,69.72
2022-09-28T16:26:08.515Z,72.11
2022-09-28T16:28:54.147Z,71.80
2022-09-28T16:31:43.843Z,74.27
2022-09-28T16:34:30.771Z,75.08
2022-09-28T16:37:31.476Z,72.94
2022-09-28T16:40:17.641Z,73.47
2022-09-28T16:43:04.508Z,75.17
2022-09-28T16:45:50.314Z,73.11
2022-09-28T16:48:37.526Z,73.51
2022-09-28T16:51:23.588Z,73.23
2022-09-28T16:54:38.559Z,72.40
2022-09-28T16:57:24.366Z,73.97
2022-09-28T17:00:23.969Z,73.95
2022-09-28T17:03:13.629Z,73.83
2022-09-28T17:05:59.813Z,74.91
2022-09-28T17:08:45.627Z,76.15
2022-09-28T17:11:31.769Z,78.44
2022-09-28T17:14:18.643Z,76.82
2022-09-28T17:17:09.845Z,78.83
2022-09-28T17:19:57.751Z,77.12
2022-09-28T17:22:44.099Z,75.91
2022-09-28T17:25:30.164Z,77.09
2022-09-28T17:28:20.753Z,78.76
2022-09-28T17:31:06.748Z,79.12
2022-09-28T17:33:53.034Z,81.65
2022-09-28T17:36:39.201Z,85.31
2022-09-28T17:39:25.590Z,85.73
2022-09-28T17:42:11.509Z,86.72
2022-09-28T17:44:58.043Z,89.19
2022-09-28T17:47:44.224Z,91.07
2022-09-28T17:50:32.486Z,91.65
2022-09-28T17:53:18.350Z,95.25
2022-09-28T17:56:04.822Z,96.56
2022-09-28T17:58:50.693Z,95.33
2022-09-28T18:01:38.200Z,96.63
2022-09-28T18:04:50.211Z,97.89
2022-09-28T18:07:31.765Z,98.19
2022-09-28T18:10:19.652Z,98.02
2022-09-28T18:13:05.787Z,99.33
2022-09-28T18:15:52.029Z,98.40
2022-09-28T18:18:39.846Z,98.78
2022-09-28T18:21:26.081Z,99.16
2022-09-28T18:24:11.966Z,100.00
2022-09-28T18:26:58.387Z,98.69
2022-09-28T18:29:45.224Z,100.00
2022-09-28T18:32:33.486Z,100.00
2022-09-28T18:35:23.027Z,99.86
2022-09-28T18:38:10.456Z,100.00
2022-09-28T18:40:56.607Z,100.00
2022-09-28T18:43:48.889Z,100.00
2022-09-28T18:46:36.782Z,100.00
2022-09-28T18:49:23.117Z,100.00
2022-09-28T18:52:10.117Z,100.00
2022-09-28T18:54:56.639Z,100.00
2022-09-28T18:57:44.143Z,100.00
2022-09-28T19:00:30.471Z,100.00
2022-09-28T19:03:16.395Z,100.00
2022-09-28T19:06:02.547Z,100.00
2022-09-28T19:08:52.245Z,100.00
2022-09-28T19:11:38.279Z,100.00
2022-09-28T19:14:26.509Z,100.00
2022-09-28T19:17:12.638Z,100.00
2022-09-28T19:19:58.853Z,100.00
2022-09-28T19:22:45.349Z,100.00
2022-09-28T19:25:31.443Z,100.00
2022-09-28T19:28:17.196Z,100.00
2022-09-28T19:31:03.801Z,100.00
2022-09-28T19:33:50.455Z,100.00
2022-09-28T19:36:36.322Z,100.00
2022-09-28T19:39:22.733Z,100.00
2022-09-28T19:42:08.593Z,100.00
2022-09-28T19:44:54.856Z,100.00
2022-09-28T19:47:40.837Z,100.00
2022-09-28T19:50:27.224Z,100.00
2022-09-28T19:53:13.347Z,100.00
2022-09-28T19:56:01.452Z,100.00
2022-09-28T19:58:47.416Z,100.00
2022-09-28T20:01:33.711Z,100.00
2022-09-28T20:04:22.890Z,100.00
2022-09-28T20:07:08.649Z,100.00
2022-09-28T20:09:54.993Z,100.00
2022-09-28T20:12:42.381Z,100.00
2022-09-28T20:15:28.828Z,100.00
2022-09-28T20:18:14.753Z,100.00
2022-09-28T20:21:07.599Z,100.00
2022-09-28T20:23:57.395Z,100.00
2022-09-28T20:26:44.399Z,100.00
2022-09-28T20:29:31.814Z,100.00
2022-09-28T20:32:18.272Z,100.00
2022-09-28T20:35:04.313Z,100.00
2022-09-28T20:37:51.052Z,100.00
2022-09-28T20:40:37.383Z,100.00
2022-09-28T20:43:24.207Z,100.00
2022-09-28T20:46:10.642Z,100.00
2022-09-28T20:48:57.978Z,100.00
2022-09-28T20:51:43.937Z,100.00
2022-09-28T20:54:31.056Z,100.00
2022-09-28T20:57:21.112Z,100.00
2022-09-28T21:00:07.760Z,100.00
2022-09-28T21:02:53.713Z,100.00
2022-09-28T21:05:40.114Z,100.00
2022-09-28T21:08:26.301Z,100.00
2022-09-28T21:11:13.024Z,100.00
2022-09-28T21:13:59.677Z,100.00
2022-09-28T21:16:45.844Z,100.00
2022-09-28T21:19:31.931Z,100.00
2022-09-28T21:22:18.110Z,100.00
2022-09-28T21:25:04.270Z,100.00
2022-09-28T21:27:50.628Z,100.00
2022-09-28T21:30:36.730Z,100.00
2022-09-28T21:33:23.253Z,100.00
2022-09-28T21:36:08.729Z,100.00
2022-09-28T21:38:55.557Z,100.00
2022-09-28T21:41:41.688Z,100.00
2022-09-28T21:44:27.676Z,100.00
2022-09-28T21:47:13.701Z,100.00
2022-09-28T21:50:00.017Z,100.00
2022-09-28T21:52:45.989Z,100.00
2022-09-28T21:55:32.482Z,100.00
2022-09-28T21:58:18.527Z,100.00
2022-09-28T22:01:08.217Z,100.00
2022-09-28T22:03:55.412Z,100.00
2022-09-28T22:06:41.361Z,100.00
2022-09-28T22:09:27.922Z,100.00
2022-09-28T22:12:14.074Z,100.00
2022-09-28T22:15:00.378Z,100.00
2022-09-28T22:17:46.458Z,100.00
2022-09-28T22:20:32.700Z,100.00
2022-09-28T22:23:18.508Z,100.00
2022-09-28T22:26:07.051Z,100.00
2022-09-28T22:28:56.651Z,100.00
2022-09-28T22:31:42.767Z,100.00
2022-09-28T22:34:31.609Z,100.00
2022-09-28T22:37:17.880Z,100.00
2022-09-28T22:40:03.944Z,100.00
2022-09-28T22:42:50.174Z,100.00
2022-09-28T22:45:35.785Z,100.00
2022-09-28T22:48:22.183Z,100.00
2022-09-28T22:51:08.333Z,100.00
2022-09-28T22:53:54.516Z,100.00
2022-09-28T22:56:40.351Z,100.00
2022-09-28T22:59:26.236Z,100.00
2022-09-28T23:02:12.164Z,100.00
2022-09-28T23:04:57.979Z,100.00
2022-09-28T23:07:44.025Z,100.00
2022-09-28T23:10:30.385Z,100.00
2022-09-28T23:13:16.362Z,100.00
2022-09-28T23:16:03.921Z,100.00
2022-09-28T23:18:50.021Z,100.00
2022-09-28T23:21:37.155Z,100.00
2022-09-28T23:24:23.127Z,100.00
2022-09-28T23:27:09.524Z,100.00
2022-09-28T23:29:55.459Z,100.00
2022-09-28T23:32:41.417Z,100.00
2022-09-28T23:35:26.893Z,100.00
2022-09-28T23:38:17.954Z,100.00
2022-09-28T23:41:04.185Z,100.00
2022-09-28T23:43:50.390Z,100.00
2022-09-28T23:46:36.261Z,100.00
2022-09-28T23:49:22.893Z,100.00
2022-09-28T23:52:08.957Z,100.00
2022-09-28T23:54:55.299Z,100.00
2022-09-28T23:57:42.945Z,100.00
